Time;durP1;ratioP1;P1;durP2;ratioP2;P2;SDS_P1;SDS_P2;PMS_P1;PMS_P2;Temp;Humidity;BMP_temperature;BMP_pressure;BME280_temperature;BME280_humidity;BME280_pressure;Samples;Min_cycle;Max_cycle;Signal;HPM_P1;HPM_P2
2022/09/20 00:01:06;;;;;;;11.68;3.45;;;14.10;99.90;;;;;;5031863;28;20184;-51
2022/09/20 00:03:33;;;;;;;14.32;3.35;;;14.20;99.90;;;;;;5036546;28;20207;-50
2022/09/20 00:06:01;;;;;;;10.93;3.40;;;14.20;99.90;;;;;;5054474;28;20183;-46
2022/09/20 00:08:27;;;;;;;14.68;3.78;;;14.20;99.90;;;;;;5054703;28;20642;-47
2022/09/20 00:11:08;;;;;;;9.68;3.38;;;14.20;99.90;;;;;;5038600;28;20649;-46
2022/09/20 00:13:35;;;;;;;15.20;2.85;;;14.10;99.90;;;;;;5037893;28;20199;-50
2022/09/20 00:16:09;;;;;;;12.25;2.42;;;14.10;99.90;;;;;;5054555;28;20599;-50
2022/09/20 00:18:35;;;;;;;11.98;2.47;;;14.10;99.90;;;;;;5054357;28;20177;-48
2022/09/20 00:21:02;;;;;;;9.68;2.03;;;14.00;99.90;;;;;;5054450;28;20175;-51
2022/09/20 00:23:29;;;;;;;6.35;1.83;;;14.10;99.90;;;;;;5051546;28;20218;-46
2022/09/20 00:25:59;;;;;;;13.23;2.00;;;13.90;99.90;;;;;;5053235;28;20206;-47
2022/09/20 00:28:26;;;;;;;14.38;2.33;;;13.90;99.90;;;;;;5053891;28;20289;-50
2022/09/20 00:30:53;;;;;;;9.65;1.88;;;13.90;99.90;;;;;;5029348;28;20612;-53
2022/09/20 00:33:20;;;;;;;6.65;1.90;;;13.90;99.90;;;;;;5043364;28;20183;-51
2022/09/20 00:35:46;;;;;;;10.80;2.97;;;13.90;99.90;;;;;;5053570;28;20202;-46
2022/09/20 00:38:13;;;;;;;9.70;2.58;;;13.90;99.90;;;;;;5036021;28;20175;-46
2022/09/20 00:40:40;;;;;;;11.07;2.60;;;14.00;99.90;;;;;;5053237;28;20180;-47
2022/09/20 00:43:06;;;;;;;10.68;2.30;;;14.00;99.90;;;;;;5046861;28;20269;-51
2022/09/20 00:45:33;;;;;;;9.20;2.30;;;14.00;99.90;;;;;;5019163;28;20552;-50
2022/09/20 00:48:10;;;;;;;10.70;2.13;;;14.00;99.90;;;;;;5035429;28;20188;-54
2022/09/20 00:50:39;;;;;;;7.35;2.30;;;14.00;99.90;;;;;;5032244;28;20164;-51
2022/09/20 00:53:11;;;;;;;9.32;2.40;;;14.00;99.90;;;;;;5033436;28;20184;-47
2022/09/20 00:55:46;;;;;;;9.80;2.40;;;13.90;99.90;;;;;;5033775;28;20160;-48
2022/09/20 00:58:14;;;;;;;11.00;2.47;;;13.90;99.90;;;;;;5025005;28;20244;-48
2022/09/20 01:00:43;;;;;;;7.38;2.10;;;13.90;99.90;;;;;;5035565;28;20653;-49
2022/09/20 01:03:10;;;;;;;11.55;2.53;;;13.90;99.90;;;;;;5052342;28;20211;-56
2022/09/20 01:05:37;;;;;;;14.85;2.22;;;13.90;99.90;;;;;;5053145;28;20184;-47
2022/09/20 01:08:03;;;;;;;13.85;2.15;;;13.90;99.90;;;;;;5052721;28;20187;-46
2022/09/20 01:10:31;;;;;;;12.63;2.22;;;13.80;99.90;;;;;;5020982;28;20218;-46
2022/09/20 01:12:57;;;;;;;11.85;2.63;;;13.80;99.90;;;;;;5063866;28;20576;-47
2022/09/20 01:15:26;;;;;;;10.85;2.70;;;13.80;99.90;;;;;;5038831;28;20638;-47
2022/09/20 01:17:55;;;;;;;14.30;2.88;;;13.80;99.90;;;;;;5050449;28;20179;-46
2022/09/20 01:20:34;;;;;;;9.93;2.45;;;13.80;99.90;;;;;;5053083;28;20225;-47
2022/09/20 01:23:14;;;;;;;8.48;2.53;;;13.90;99.90;;;;;;5053597;28;20199;-52
2022/09/20 01:25:58;;;;;;;9.65;3.20;;;13.90;99.90;;;;;;5046127;28;20185;-52
2022/09/20 01:28:26;;;;;;;11.32;2.70;;;13.90;99.90;;;;;;5053248;28;20262;-45
2022/09/20 01:30:58;;;;;;;9.55;2.38;;;13.90;99.90;;;;;;5052865;28;20270;-54
2022/09/20 01:33:57;;;;;;;9.45;2.40;;;13.90;99.90;;;;;;5050468;28;20171;-47
2022/09/20 01:36:37;;;;;;;11.20;2.28;;;13.90;99.90;;;;;;5051528;28;20183;-54
2022/09/20 01:39:18;;;;;;;13.38;2.88;;;13.90;99.90;;;;;;5035069;28;20183;-47
2022/09/20 01:41:56;;;;;;;8.00;2.30;;;13.90;99.90;;;;;;5034612;28;20303;-50
2022/09/20 01:44:24;;;;;;;12.52;2.55;;;13.90;99.90;;;;;;5035398;28;20227;-51
2022/09/20 01:46:59;;;;;;;11.55;2.58;;;13.90;99.90;;;;;;5038049;28;20667;-45
2022/09/20 01:49:40;;;;;;;7.80;2.35;;;14.00;99.90;;;;;;5051369;28;20162;-54
2022/09/20 01:52:40;;;;;;;12.75;2.47;;;13.90;99.90;;;;;;5049006;28;20179;-46
2022/09/20 01:55:30;;;;;;;5.78;2.20;;;13.90;99.90;;;;;;5052939;28;20179;-47
2022/09/20 01:58:08;;;;;;;12.85;2.45;;;13.90;99.90;;;;;;5034225;28;20184;-46
2022/09/20 02:00:46;;;;;;;10.85;2.50;;;13.90;99.90;;;;;;5043839;28;20225;-47
2022/09/20 02:03:21;;;;;;;9.13;2.22;;;13.90;99.90;;;;;;5055241;28;20195;-50
2022/09/20 02:06:02;;;;;;;6.07;2.13;;;13.80;99.90;;;;;;5056211;28;20653;-49
2022/09/20 02:08:46;;;;;;;10.60;2.20;;;13.80;99.90;;;;;;5055719;28;20181;-49
2022/09/20 02:11:15;;;;;;;8.45;2.03;;;13.70;99.90;;;;;;5064168;28;20188;-49
2022/09/20 02:14:03;;;;;;;9.40;1.92;;;13.70;99.90;;;;;;5069547;28;20266;-46
2022/09/20 02:16:42;;;;;;;9.27;2.33;;;13.70;99.90;;;;;;5056371;28;20695;-49
2022/09/20 02:19:20;;;;;;;7.35;2.30;;;13.70;99.90;;;;;;5055378;28;20266;-48
2022/09/20 02:22:23;;;;;;;5.60;2.10;;;13.70;99.90;;;;;;5056527;28;20199;-46
2022/09/20 02:24:57;;;;;;;8.13;2.35;;;13.70;99.90;;;;;;5038633;28;20186;-47
2022/09/20 02:27:39;;;;;;;9.65;2.83;;;13.70;99.90;;;;;;5055236;28;20297;-49
2022/09/20 02:30:14;;;;;;;9.02;2.35;;;13.70;99.90;;;;;;5046653;28;20205;-53
2022/09/20 02:33:04;;;;;;;8.95;2.17;;;13.70;99.90;;;;;;5038415;28;20221;-45
2022/09/20 02:35:33;;;;;;;10.30;1.92;;;13.70;99.90;;;;;;5055636;28;20531;-48
2022/09/20 02:38:04;;;;;;;15.88;2.50;;;13.70;99.90;;;;;;5036329;28;20650;-46
2022/09/20 02:41:04;;;;;;;8.20;2.30;;;13.60;99.90;;;;;;5041614;28;20187;-49
2022/09/20 02:43:54;;;;;;;10.75;2.38;;;13.60;99.90;;;;;;5056013;28;20574;-49
2022/09/20 02:46:34;;;;;;;13.73;2.50;;;13.60;99.90;;;;;;5056001;28;20195;-46
2022/09/20 02:49:24;;;;;;;9.00;2.05;;;13.60;99.90;;;;;;5036277;28;20190;-47
2022/09/20 02:52:25;;;;;;;6.85;2.20;;;13.60;99.90;;;;;;5055937;28;20258;-48
2022/09/20 02:55:04;;;;;;;7.15;2.30;;;13.60;99.90;;;;;;5056232;28;20171;-48
2022/09/20 02:58:02;;;;;;;10.70;2.20;;;13.60;99.90;;;;;;5056726;28;20270;-46
2022/09/20 03:00:37;;;;;;;9.00;2.40;;;13.70;99.90;;;;;;5054914;28;20219;-48
2022/09/20 03:03:25;;;;;;;9.77;2.65;;;13.70;99.90;;;;;;5055291;28;20221;-47
2022/09/20 03:06:07;;;;;;;7.80;2.15;;;13.60;99.90;;;;;;5055764;28;20195;-50
2022/09/20 03:08:43;;;;;;;8.75;1.80;;;13.60;99.90;;;;;;5055526;28;20207;-46
2022/09/20 03:11:25;;;;;;;6.28;2.50;;;13.60;99.90;;;;;;5062201;28;20308;-45
2022/09/20 03:14:11;;;;;;;8.25;2.13;;;13.60;99.90;;;;;;5042400;28;20167;-44
2022/09/20 03:17:01;;;;;;;10.57;2.00;;;13.60;99.90;;;;;;5055372;28;20223;-46
2022/09/20 03:19:47;;;;;;;9.57;2.20;;;13.60;99.90;;;;;;5055914;28;20167;-49
2022/09/20 03:22:43;;;;;;;7.35;2.45;;;13.50;99.90;;;;;;5044947;28;20206;-49
2022/09/20 03:25:35;;;;;;;8.05;2.15;;;13.60;99.90;;;;;;5055080;28;20159;-50
2022/09/20 03:28:13;;;;;;;7.85;2.03;;;13.60;99.90;;;;;;5055910;28;20175;-50
2022/09/20 03:30:45;;;;;;;7.70;2.55;;;13.60;99.90;;;;;;5054012;28;20284;-46
2022/09/20 03:33:46;;;;;;;13.52;2.38;;;13.60;99.90;;;;;;5027977;28;20183;-51
2022/09/20 03:36:21;;;;;;;10.70;2.30;;;13.60;99.90;;;;;;4957479;28;20241;-51
2022/09/20 03:39:14;;;;;;;11.02;2.70;;;13.60;99.90;;;;;;5033817;28;20187;-46
2022/09/20 03:41:55;;;;;;;14.15;2.40;;;13.60;99.90;;;;;;5053279;28;20175;-48
2022/09/20 03:44:23;;;;;;;9.40;2.30;;;13.60;99.90;;;;;;5055074;28;20182;-52
2022/09/20 03:47:00;;;;;;;9.10;2.10;;;13.60;99.90;;;;;;5054808;28;20186;-48
2022/09/20 03:49:49;;;;;;;7.78;2.50;;;13.50;99.90;;;;;;5055090;28;20167;-46
2022/09/20 03:52:52;;;;;;;5.22;2.50;;;13.50;99.90;;;;;;5053472;28;20183;-52
2022/09/20 03:55:27;;;;;;;9.82;2.38;;;13.50;99.90;;;;;;5054698;28;20171;-48
2022/09/20 03:58:16;;;;;;;10.43;2.60;;;13.50;99.90;;;;;;5055175;28;20162;-46
2022/09/20 04:00:48;;;;;;;8.90;4.00;;;13.50;99.90;;;;;;5053041;28;20190;-52
2022/09/20 04:03:26;;;;;;;10.35;3.00;;;13.40;99.90;;;;;;5046390;28;20218;-48
2022/09/20 04:06:01;;;;;;;10.25;2.97;;;13.40;99.90;;;;;;5053620;28;20179;-48
2022/09/20 04:09:19;;;;;;;8.85;3.10;;;13.40;99.90;;;;;;5054659;28;20181;-49
2022/09/20 04:11:53;;;;;;;4.80;2.45;;;13.40;99.90;;;;;;5044715;28;20566;-49
2022/09/20 04:14:33;;;;;;;11.82;3.10;;;13.40;99.90;;;;;;5035910;28;20209;-48
2022/09/20 04:17:37;;;;;;;9.52;2.97;;;13.40;99.90;;;;;;5053469;28;20179;-45
2022/09/20 04:20:32;;;;;;;14.15;2.80;;;13.30;99.90;;;;;;5023236;28;20215;-45
2022/09/20 04:23:07;;;;;;;9.02;2.50;;;13.30;99.90;;;;;;5046812;28;20215;-48
2022/09/20 04:25:41;;;;;;;6.82;2.63;;;13.20;99.90;;;;;;5027320;28;20662;-50
2022/09/20 04:28:29;;;;;;;10.07;2.63;;;13.20;99.90;;;;;;5036252;28;20164;-48
2022/09/20 04:31:04;;;;;;;8.32;2.42;;;13.20;99.90;;;;;;5036269;28;20533;-46
2022/09/20 04:33:41;;;;;;;5.78;2.50;;;13.20;99.90;;;;;;5054458;28;20181;-51
2022/09/20 04:36:34;;;;;;;11.80;4.47;;;13.20;99.90;;;;;;5052822;28;20599;-48
2022/09/20 04:39:16;;;;;;;9.85;2.58;;;13.20;99.90;;;;;;5053982;28;20179;-47
2022/09/20 04:41:59;;;;;;;6.35;2.15;;;13.10;99.90;;;;;;5051923;28;20195;-44
2022/09/20 04:44:51;;;;;;;8.15;2.15;;;13.10;99.90;;;;;;5046130;28;20171;-47
2022/09/20 04:47:42;;;;;;;10.70;2.60;;;13.10;99.90;;;;;;5050961;28;20180;-52
2022/09/20 04:50:59;;;;;;;7.57;2.53;;;13.10;99.90;;;;;;5036582;28;20576;-47
2022/09/20 04:54:15;;;;;;;12.23;2.80;;;13.00;99.90;;;;;;5008304;28;20287;-46
2022/09/20 04:57:39;;;;;;;8.13;2.35;;;13.00;99.90;;;;;;5047448;28;20244;-48
2022/09/20 05:00:11;;;;;;;13.02;2.40;;;13.00;99.90;;;;;;4936533;29;20238;-56
2022/09/20 05:03:01;;;;;;;10.05;2.90;;;12.90;99.90;;;;;;4939168;28;20206;-47
2022/09/20 05:06:03;;;;;;;8.43;3.10;;;12.90;99.90;;;;;;5021631;28;20651;-50
2022/09/20 05:08:35;;;;;;;11.73;3.25;;;12.80;99.90;;;;;;5052551;28;20205;-47
2022/09/20 05:11:19;;;;;;;12.68;2.83;;;12.80;99.90;;;;;;5060574;28;20236;-50
2022/09/20 05:14:12;;;;;;;9.90;3.10;;;12.80;99.90;;;;;;5073281;28;20175;-45
2022/09/20 05:16:59;;;;;;;8.10;3.20;;;12.80;99.90;;;;;;5033241;28;20194;-45
2022/09/20 05:19:44;;;;;;;12.05;3.10;;;12.70;99.90;;;;;;5039991;28;20209;-46
2022/09/20 05:22:40;;;;;;;7.80;3.05;;;12.70;99.90;;;;;;5037252;28;20239;-44
2022/09/20 05:25:37;;;;;;;11.80;3.20;;;12.70;99.90;;;;;;5033398;28;20168;-45
2022/09/20 05:28:18;;;;;;;11.68;3.45;;;12.60;99.90;;;;;;5050629;28;20246;-50
2022/09/20 05:31:12;;;;;;;11.18;3.78;;;12.60;99.90;;;;;;5049791;28;20311;-50
2022/09/20 05:34:00;;;;;;;10.35;3.53;;;12.60;99.90;;;;;;5003652;28;20206;-50
2022/09/20 05:36:35;;;;;;;10.85;4.13;;;12.60;99.90;;;;;;5026117;28;20176;-51
2022/09/20 05:39:18;;;;;;;12.02;3.67;;;12.60;99.90;;;;;;5041945;28;20262;-52
2022/09/20 05:42:40;;;;;;;21.67;4.30;;;12.60;99.90;;;;;;5051255;28;20253;-51
2022/09/20 05:45:27;;;;;;;11.77;3.50;;;12.60;99.90;;;;;;4970625;28;20241;-54
2022/09/20 05:48:13;;;;;;;17.77;4.28;;;12.60;99.90;;;;;;5035932;28;20206;-51
2022/09/20 05:50:59;;;;;;;16.77;4.10;;;12.50;99.90;;;;;;5041630;28;20180;-48
2022/09/20 05:54:06;;;;;;;11.13;4.00;;;12.50;99.90;;;;;;5046753;28;20195;-58
2022/09/20 05:56:39;;;;;;;12.57;4.10;;;12.50;99.90;;;;;;5008817;28;20218;-53
2022/09/20 05:59:29;;;;;;;15.02;4.57;;;12.50;99.90;;;;;;5043563;28;20579;-52
2022/09/20 06:02:14;;;;;;;16.38;4.28;;;12.50;99.90;;;;;;5047789;28;20282;-52
2022/09/20 06:05:13;;;;;;;17.85;5.50;;;12.50;99.90;;;;;;5052652;28;20268;-49
2022/09/20 06:07:53;;;;;;;13.32;4.38;;;12.40;99.90;;;;;;5049005;28;20193;-54
2022/09/20 06:10:40;;;;;;;15.70;4.85;;;12.40;99.90;;;;;;5049516;28;20187;-50
2022/09/20 06:13:40;;;;;;;13.43;4.30;;;12.30;99.90;;;;;;5049408;28;20183;-52
2022/09/20 06:16:13;;;;;;;16.52;4.13;;;12.30;99.90;;;;;;5043971;28;20195;-49
2022/09/20 06:19:00;;;;;;;10.95;3.53;;;12.30;99.90;;;;;;5053040;28;20193;-52
2022/09/20 06:21:48;;;;;;;10.68;3.63;;;12.30;99.90;;;;;;5052089;28;20696;-49
2022/09/20 06:24:39;;;;;;;10.77;3.90;;;12.30;99.90;;;;;;5040008;28;20192;-51
2022/09/20 06:27:24;;;;;;;12.57;3.70;;;12.30;99.90;;;;;;5018144;28;20229;-46
2022/09/20 06:30:04;;;;;;;10.18;3.63;;;12.30;99.90;;;;;;5029727;28;20198;-51
2022/09/20 06:32:33;;;;;;;16.75;4.40;;;12.30;99.90;;;;;;5052557;28;20209;-47
2022/09/20 06:35:01;;;;;;;10.43;4.20;;;12.30;99.90;;;;;;5051463;28;20214;-52
2022/09/20 06:43:23;;;;;;;17.13;5.03;;;12.30;99.90;;;;;;5035572;28;20212;-49
2022/09/20 06:45:49;;;;;;;18.98;4.72;;;12.30;99.90;;;;;;5041681;28;20707;-51
2022/09/20 06:48:15;;;;;;;13.48;4.63;;;12.40;99.90;;;;;;5027090;28;20220;-48
2022/09/20 06:50:44;;;;;;;8.18;3.70;;;12.40;99.90;;;;;;5054068;28;20213;-51
2022/09/20 06:53:20;;;;;;;14.93;4.28;;;12.50;99.90;;;;;;5056865;28;20186;-49
2022/09/20 06:55:46;;;;;;;11.93;4.30;;;12.50;99.90;;;;;;5048700;28;20554;-49
2022/09/20 06:58:12;;;;;;;16.85;4.65;;;12.60;99.90;;;;;;5027197;28;20248;-52
2022/09/20 07:00:38;;;;;;;17.52;4.82;;;12.60;99.90;;;;;;5035660;28;20703;-50
2022/09/20 07:03:05;;;;;;;13.10;5.07;;;12.70;99.90;;;;;;5038041;28;20256;-52
2022/09/20 07:05:30;;;;;;;13.57;4.72;;;12.70;99.90;;;;;;5034851;28;20553;-51
2022/09/20 07:07:57;;;;;;;14.93;4.10;;;12.80;99.90;;;;;;5020029;28;20176;-57
2022/09/20 07:10:26;;;;;;;15.77;3.80;;;12.90;99.90;;;;;;5037748;28;20369;-49
2022/09/20 07:12:55;;;;;;;9.65;3.22;;;12.90;99.90;;;;;;5040200;28;20672;-52
2022/09/20 07:15:23;;;;;;;8.35;2.78;;;12.90;99.90;;;;;;5035082;28;20198;-52
2022/09/20 07:17:49;;;;;;;15.15;3.13;;;13.00;99.90;;;;;;5053711;28;20207;-49
2022/09/20 07:20:16;;;;;;;13.98;3.17;;;13.10;99.90;;;;;;5036826;28;20190;-47
2022/09/20 07:22:42;;;;;;;17.95;3.08;;;13.10;99.90;;;;;;5035657;28;20218;-48
2022/09/20 07:25:08;;;;;;;13.50;2.95;;;13.20;99.90;;;;;;5054196;28;20555;-50
2022/09/20 07:27:33;;;;;;;11.25;3.40;;;13.20;99.90;;;;;;5035934;28;20198;-48
2022/09/20 07:30:01;;;;;;;13.15;3.33;;;13.20;99.90;;;;;;5035158;28;20183;-50
2022/09/20 07:32:26;;;;;;;11.25;2.67;;;13.20;99.90;;;;;;5053463;28;20321;-47
2022/09/20 07:34:52;;;;;;;6.88;2.50;;;13.20;99.90;;;;;;5054057;28;20274;-50
2022/09/20 07:37:18;;;;;;;11.25;2.35;;;13.20;99.90;;;;;;5053416;28;20313;-50
2022/09/20 07:39:44;;;;;;;11.38;2.85;;;13.20;99.90;;;;;;5053784;28;20190;-50
2022/09/20 07:42:11;;;;;;;9.13;2.30;;;13.20;99.90;;;;;;5044101;28;20203;-49
2022/09/20 07:44:39;;;;;;;1999.90;536.35;;;13.20;99.90;;;;;;5051373;28;20266;-51
2022/09/20 07:47:05;;;;;;;797.88;127.88;;;13.30;99.90;;;;;;5054178;28;20627;-50
2022/09/20 07:49:31;;;;;;;1529.07;301.13;;;13.30;99.90;;;;;;5050131;28;20202;-50
2022/09/20 07:51:57;;;;;;;90.20;20.17;;;13.30;99.90;;;;;;5042722;28;20180;-51
2022/09/20 07:54:23;;;;;;;36.10;7.55;;;13.30;99.90;;;;;;5049975;28;20236;-49
2022/09/20 07:56:49;;;;;;;14.10;3.83;;;13.30;99.90;;;;;;5052144;28;20602;-47
2022/09/20 07:59:15;;;;;;;41.63;8.27;;;13.40;99.90;;;;;;5040592;28;20227;-49
2022/09/20 08:01:41;;;;;;;30.98;5.85;;;13.40;99.90;;;;;;5041111;28;20180;-51
2022/09/20 08:04:08;;;;;;;24.02;4.47;;;13.40;99.90;;;;;;5036582;28;20187;-50
2022/09/20 08:06:43;;;;;;;44.63;8.07;;;13.50;99.90;;;;;;5053767;28;20171;-62
2022/09/20 08:09:12;;;;;;;8.45;2.50;;;13.50;99.90;;;;;;5039352;28;20305;-53
2022/09/20 08:11:39;;;;;;;19.38;3.78;;;13.60;99.90;;;;;;5056066;28;20178;-46
2022/09/20 08:14:06;;;;;;;8.88;2.70;;;13.60;99.90;;;;;;5052407;28;20214;-50
2022/09/20 08:16:40;;;;;;;13.93;2.30;;;13.70;99.90;;;;;;5036734;28;20202;-48
2022/09/20 08:19:06;;;;;;;7.45;2.30;;;13.70;99.90;;;;;;5052454;28;20171;-50
2022/09/20 08:21:33;;;;;;;7.80;2.00;;;13.80;99.90;;;;;;5035256;28;20187;-49
2022/09/20 08:24:00;;;;;;;10.35;2.28;;;13.90;99.90;;;;;;5053048;28;20218;-51
2022/09/20 08:26:27;;;;;;;14.65;2.55;;;13.90;99.90;;;;;;5054037;28;20673;-50
2022/09/20 08:28:55;;;;;;;11.02;2.42;;;14.00;99.90;;;;;;5047224;28;20706;-62
2022/09/20 08:31:25;;;;;;;17.55;2.70;;;14.00;99.90;;;;;;5048450;28;20313;-48
2022/09/20 08:33:52;;;;;;;11.60;1.95;;;14.00;99.90;;;;;;5033930;28;20628;-61
2022/09/20 08:36:23;;;;;;;13.65;2.78;;;14.00;99.90;;;;;;5049081;28;20513;-47
2022/09/20 08:38:49;;;;;;;11.85;2.67;;;14.00;99.90;;;;;;5034355;28;20160;-55
2022/09/20 08:41:21;;;;;;;11.48;2.53;;;14.10;99.90;;;;;;5050167;28;20237;-49
2022/09/20 08:44:17;;;;;;;8.68;2.50;;;14.10;99.90;;;;;;5051507;28;20211;-48
2022/09/20 08:46:49;;;;;;;11.02;2.42;;;14.10;99.90;;;;;;5034267;28;20187;-50
2022/09/20 08:49:25;;;;;;;10.32;2.22;;;14.10;99.90;;;;;;5036912;28;20210;-51
2022/09/20 08:51:53;;;;;;;6.75;1.75;;;14.10;99.90;;;;;;5036181;28;20576;-52
2022/09/20 08:54:19;;;;;;;15.15;2.08;;;14.10;99.90;;;;;;5052148;28;20302;-48
2022/09/20 08:56:47;;;;;;;8.07;2.42;;;14.10;99.90;;;;;;5053414;28;20176;-52
2022/09/20 08:59:19;;;;;;;7.80;1.42;;;14.00;99.90;;;;;;5033530;28;20256;-51
2022/09/20 09:01:50;;;;;;;5.82;1.70;;;14.00;99.90;;;;;;5034827;28;20183;-48
2022/09/20 09:04:23;;;;;;;10.88;2.22;;;14.00;99.90;;;;;;5047418;28;20189;-50
2022/09/20 09:06:51;;;;;;;4.70;1.13;;;13.90;99.90;;;;;;5033915;28;20267;-53
2022/09/20 09:09:26;;;;;;;10.75;2.08;;;13.90;99.90;;;;;;5036725;28;20179;-50
2022/09/20 09:11:53;;;;;;;4.35;1.60;;;13.90;99.90;;;;;;5051343;28;20183;-49
2022/09/20 09:14:47;;;;;;;11.13;1.88;;;13.90;99.90;;;;;;5045889;28;20175;-50
2022/09/20 09:17:15;;;;;;;12.50;1.60;;;13.90;99.90;;;;;;5033396;28;20187;-53
2022/09/20 09:19:45;;;;;;;7.07;1.80;;;14.00;99.90;;;;;;5040356;28;20183;-52
2022/09/20 09:22:37;;;;;;;11.68;1.90;;;14.10;99.90;;;;;;5048450;28;20203;-47
2022/09/20 09:25:33;;;;;;;3.70;1.27;;;14.20;99.90;;;;;;5033607;28;20248;-50
2022/09/20 09:28:12;;;;;;;5.60;1.77;;;14.40;99.90;;;;;;5052082;28;20183;-52
2022/09/20 09:30:40;;;;;;;7.15;1.27;;;14.60;99.90;;;;;;5052395;28;20187;-52
2022/09/20 09:33:29;;;;;;;6.88;1.38;;;14.70;99.90;;;;;;5034481;28;20297;-49
2022/09/20 09:36:05;;;;;;;7.25;1.20;;;14.90;99.90;;;;;;5020718;28;20183;-49
2022/09/20 09:38:34;;;;;;;10.65;1.25;;;15.00;99.90;;;;;;5033564;28;20176;-52
2022/09/20 09:41:02;;;;;;;10.15;1.83;;;15.10;99.90;;;;;;5047313;28;20179;-49
2022/09/20 09:43:36;;;;;;;6.10;1.35;;;15.20;99.90;;;;;;5049567;28;20288;-50
2022/09/20 09:46:25;;;;;;;11.40;1.42;;;15.30;99.90;;;;;;5047576;28;20270;-47
2022/09/20 09:49:14;;;;;;;3.72;1.20;;;15.40;99.90;;;;;;5044263;28;20183;-60
2022/09/20 09:52:00;;;;;;;6.43;1.65;;;15.50;99.90;;;;;;5048848;28;20183;-51
2022/09/20 09:54:35;;;;;;;5.65;1.35;;;15.50;99.90;;;;;;5036901;28;20190;-47
2022/09/20 09:57:16;;;;;;;6.60;1.00;;;15.60;99.90;;;;;;5035942;28;20251;-48
2022/09/20 10:00:18;;;;;;;4.57;1.10;;;15.60;99.90;;;;;;5039528;28;20586;-50
2022/09/20 10:03:21;;;;;;;6.80;1.27;;;15.60;99.90;;;;;;5050543;28;20214;-52
2022/09/20 10:06:17;;;;;;;5.63;1.30;;;15.60;99.90;;;;;;5047073;28;20202;-52
2022/09/20 10:08:45;;;;;;;7.00;1.33;;;15.60;99.90;;;;;;5036009;28;20237;-48
2022/09/20 10:11:14;;;;;;;5.43;1.25;;;15.70;99.90;;;;;;5059132;28;20254;-50
2022/09/20 10:14:02;;;;;;;5.22;1.20;;;15.70;99.90;;;;;;5060594;28;20207;-50
2022/09/20 10:16:49;;;;;;;5.82;1.60;;;15.70;99.90;;;;;;5032318;28;20265;-50
2022/09/20 10:19:40;;;;;;;6.63;1.10;;;15.70;99.90;;;;;;5040755;28;20198;-49
2022/09/20 10:22:21;;;;;;;6.18;1.08;;;15.70;99.90;;;;;;5051412;28;20207;-53
2022/09/20 10:25:21;;;;;;;6.10;1.10;;;15.80;99.90;;;;;;5055486;28;20183;-53
2022/09/20 10:27:56;;;;;;;10.35;1.73;;;15.80;99.90;;;;;;5056666;28;20298;-51
2022/09/20 10:30:46;;;;;;;5.90;1.08;;;15.90;99.90;;;;;;5049407;28;20194;-51
2022/09/20 10:33:44;;;;;;;5.15;0.93;;;16.00;99.90;;;;;;5055396;28;20187;-52
2022/09/20 10:36:25;;;;;;;6.70;1.17;;;16.10;99.90;;;;;;5033332;28;20184;-51
2022/09/20 10:39:07;;;;;;;5.65;1.10;;;16.30;99.90;;;;;;5055570;28;20172;-64
2022/09/20 10:44:46;;;;;;;5.60;1.00;;;16.50;99.90;;;;;;5050932;28;20237;-52
2022/09/20 10:47:20;;;;;;;7.80;1.48;;;16.70;99.90;;;;;;5053660;28;20240;-47
2022/09/20 10:49:57;;;;;;;5.45;1.23;;;16.70;99.90;;;;;;5055048;28;20191;-52
2022/09/20 10:52:40;;;;;;;8.38;1.50;;;16.70;99.90;;;;;;5053551;28;20183;-46
2022/09/20 10:55:21;;;;;;;7.35;1.05;;;16.80;99.90;;;;;;5049903;28;20187;-48
2022/09/20 10:58:02;;;;;;;6.07;1.30;;;16.80;99.90;;;;;;5056242;28;20195;-51
2022/09/20 11:00:41;;;;;;;6.18;1.90;;;16.80;99.90;;;;;;5054535;28;20236;-53
2022/09/20 11:03:20;;;;;;;2.92;1.20;;;16.80;99.90;;;;;;5044052;28;20282;-47
2022/09/20 11:06:05;;;;;;;6.93;1.20;;;16.70;99.90;;;;;;5051457;28;20183;-51
2022/09/20 11:08:37;;;;;;;4.65;1.20;;;16.80;99.90;;;;;;5054944;28;20190;-47
2022/09/20 11:11:34;;;;;;;6.53;1.38;;;16.70;99.90;;;;;;5042666;28;20205;-52
2022/09/20 11:14:15;;;;;;;6.30;1.10;;;16.80;99.90;;;;;;5043199;28;20187;-51
2022/09/20 11:17:08;;;;;;;6.05;1.20;;;16.80;99.90;;;;;;5045607;28;20197;-48
2022/09/20 11:19:55;;;;;;;5.43;0.80;;;16.90;99.90;;;;;;5054773;28;20190;-48
2022/09/20 11:22:32;;;;;;;5.57;1.25;;;17.10;99.90;;;;;;5055563;28;20191;-52
2022/09/20 11:25:05;;;;;;;5.32;1.00;;;17.30;99.90;;;;;;5033453;28;20611;-49
2022/09/20 11:27:50;;;;;;;6.40;1.50;;;17.50;99.90;;;;;;5055272;28;20164;-49
2022/09/20 11:30:18;;;;;;;3.92;1.10;;;17.70;99.90;;;;;;5053752;28;20179;-55
2022/09/20 11:32:51;;;;;;;7.10;1.17;;;17.90;99.90;;;;;;5054606;28;20333;-49
2022/09/20 11:35:34;;;;;;;6.28;1.60;;;18.00;99.90;;;;;;5049216;28;20198;-53
2022/09/20 11:38:20;;;;;;;4.00;0.90;;;18.10;99.90;;;;;;5054881;28;20167;-48
2022/09/20 11:40:52;;;;;;;3.25;0.82;;;18.20;99.90;;;;;;5052439;28;20183;-49
2022/09/20 11:43:19;;;;;;;3.20;0.70;;;18.20;99.90;;;;;;5037205;28;20682;-52
2022/09/20 11:45:52;;;;;;;4.53;0.82;;;18.10;99.80;;;;;;5046353;28;20175;-53
2022/09/20 11:48:36;;;;;;;5.78;0.80;;;18.10;99.10;;;;;;5034730;28;20638;-51
2022/09/20 11:51:02;;;;;;;3.88;0.90;;;18.10;98.50;;;;;;5033666;28;20221;-58
2022/09/20 11:53:45;;;;;;;6.10;0.70;;;18.10;97.60;;;;;;5054367;28;20578;-48
2022/09/20 11:56:32;;;;;;;3.83;0.90;;;18.10;96.10;;;;;;5052729;28;20198;-52
2022/09/20 11:59:06;;;;;;;3.15;0.90;;;18.10;96.70;;;;;;5053376;28;20250;-51
2022/09/20 12:01:37;;;;;;;3.00;1.20;;;18.20;96.70;;;;;;5033566;28;20238;-53
2022/09/20 12:04:11;;;;;;;2.70;0.85;;;18.20;95.80;;;;;;5017733;28;20215;-51
2022/09/20 12:06:40;;;;;;;11.80;1.27;;;18.30;95.80;;;;;;5039222;28;20643;-48
2022/09/20 12:09:23;;;;;;;4.13;0.82;;;18.40;95.80;;;;;;5051094;28;20218;-52
2022/09/20 12:11:51;;;;;;;8.10;1.30;;;18.50;95.20;;;;;;5060869;28;20253;-52
2022/09/20 12:14:26;;;;;;;4.65;0.80;;;18.60;95.10;;;;;;5024514;28;20210;-48
2022/09/20 12:16:52;;;;;;;8.85;1.10;;;18.70;94.70;;;;;;5053612;28;20304;-51
2022/09/20 12:19:35;;;;;;;11.40;1.00;;;18.70;93.30;;;;;;5022866;28;20187;-48
2022/09/20 12:22:02;;;;;;;4.53;1.00;;;18.60;92.70;;;;;;5034694;28;20180;-52
2022/09/20 12:24:31;;;;;;;4.07;1.10;;;18.60;93.30;;;;;;5038812;28;20266;-50
2022/09/20 12:26:59;;;;;;;5.13;1.50;;;18.60;93.10;;;;;;5035098;28;20187;-53
2022/09/20 12:29:25;;;;;;;3.17;1.00;;;18.60;93.40;;;;;;5044858;28;20183;-49
2022/09/20 12:31:54;;;;;;;8.80;1.10;;;18.60;93.20;;;;;;5051339;28;20187;-51
2022/09/20 12:34:20;;;;;;;8.38;1.40;;;18.70;92.90;;;;;;5032929;28;20341;-52
2022/09/20 12:36:54;;;;;;;4.20;1.00;;;18.70;92.80;;;;;;5054001;28;20657;-50
2022/09/20 12:39:33;;;;;;;6.78;1.30;;;18.70;92.70;;;;;;5047035;28;20171;-56
2022/09/20 12:42:29;;;;;;;6.47;1.10;;;18.80;92.50;;;;;;5044031;28;20184;-53
2022/09/20 12:45:03;;;;;;;5.85;0.85;;;18.80;92.70;;;;;;5049423;28;20210;-49
2022/09/20 12:47:32;;;;;;;11.82;2.25;;;18.90;92.80;;;;;;5021437;28;20187;-48
2022/09/20 12:52:57;;;;;;;4.07;1.10;;;19.00;91.90;;;;;;5052929;28;20186;-53
2022/09/20 12:55:32;;;;;;;5.28;1.10;;;18.90;91.90;;;;;;5047478;28;20175;-55
2022/09/20 12:58:04;;;;;;;8.23;1.70;;;18.90;92.00;;;;;;5051504;28;20179;-51
2022/09/20 13:00:47;;;;;;;4.95;1.10;;;18.80;91.70;;;;;;5049985;28;20231;-51
2022/09/20 13:03:30;;;;;;;6.43;1.20;;;18.80;91.30;;;;;;5027463;28;20199;-47
2022/09/20 13:06:05;;;;;;;7.30;1.20;;;18.80;90.80;;;;;;5049365;28;20646;-51
2022/09/20 13:08:38;;;;;;;6.65;1.42;;;18.70;91.60;;;;;;5033386;28;20172;-47
2022/09/20 13:11:16;;;;;;;5.82;1.17;;;18.70;92.00;;;;;;5057597;28;20214;-48
2022/09/20 13:13:54;;;;;;;5.03;1.40;;;18.70;92.40;;;;;;5047378;28;20186;-51
2022/09/20 13:16:49;;;;;;;3.58;0.98;;;18.60;92.60;;;;;;5047498;28;20179;-45
2022/09/20 13:19:19;;;;;;;6.18;1.65;;;18.60;93.00;;;;;;5025633;28;20274;-50
2022/09/20 13:21:56;;;;;;;6.32;1.63;;;18.60;93.10;;;;;;5033448;28;20179;-49
2022/09/20 13:24:24;;;;;;;5.97;1.20;;;18.60;93.30;;;;;;5040609;28;20219;-47
2022/09/20 13:26:52;;;;;;;3.78;1.10;;;18.70;93.30;;;;;;5034589;28;20176;-47
2022/09/20 13:29:37;;;;;;;11.00;1.50;;;18.90;93.20;;;;;;5051708;28;20262;-51
2022/09/20 13:32:28;;;;;;;9.13;1.55;;;19.10;93.10;;;;;;5043621;28;20500;-51
2022/09/20 13:35:09;;;;;;;4.80;1.15;;;19.30;92.40;;;;;;5051885;28;20680;-46
2022/09/20 13:37:45;;;;;;;4.07;1.15;;;19.40;92.10;;;;;;5052997;28;20186;-50
2022/09/20 13:40:19;;;;;;;6.40;1.20;;;19.60;91.70;;;;;;5024140;28;20222;-52
2022/09/20 13:42:48;;;;;;;4.55;1.00;;;19.70;91.40;;;;;;5045755;28;20209;-48
2022/09/20 13:45:15;;;;;;;2.40;0.88;;;19.80;91.10;;;;;;5028634;28;20325;-46
2022/09/20 13:47:42;;;;;;;11.02;1.20;;;19.90;90.90;;;;;;4987315;28;20659;-51
2022/09/20 13:50:34;;;;;;;9.10;1.50;;;19.90;90.70;;;;;;5025466;28;20180;-54